Little Clacton, United Kingdom
Current Conditions -  °F | °C
As of 8:50 AM on Wednesday 28 Jan 2015 (Local Time) from EGUW Reporting Station
Overcast Overcast  
Wind Chill: 39°   Ceiling: 600
Heat Index: 46°   Visibility: 6mi
Dew Point: 43°   Wind: 21mph
Humidity: 87%   Direction: 200°SSW
Pressure: 29.53"   Gusts: NA
Location:  51.83°N, 1.14°E
Report Text: EGUW 280850Z 20018KT 9999 OVC006 08/06 Q1000 YLO1 BECMG 4000 -RA BKN004 YLO2
Loading
Personal Weather Stations






























Interactive Weather Map New forecast layout! Learn more

10-Day Weather Forecast

Advertisements
Track Severe Weather on mobile